KOAK/OAK METAR and TAF weather

Enter ICAO airport designator
Station Type Date Time Source
KOAK METAR 2021/05/13 05:53 UTC NOAA

KOAK 130553Z 31011KT 10SM FEW006 BKN008 12/09 A3006 RMK AO2 SLP179 T01170094 10172 20117 51015


Station Type Date Time Source
KOAK Decoded METAR 2021/05/13 05:53 UTC NOAA

METRO OAKLAND INTERNATIONAL AIRPORT , CA, United States (KOAK) 37-43N 122-14W 26M
May 13, 2021 - 01:53 AM EDT / 2021.05.13 0553 UTC
Wind: from the NW (310 degrees) at 13 MPH (11 KT):0
Visibility: 10 mile(s):0
Sky conditions: mostly cloudy
Temperature: 53.1 F (11.7 C)
Dew Point: 48.9 F (9.4 C)
Relative Humidity: 85%
Pressure (altimeter): 30.06 in. Hg (1017 hPa)
Pressure tendency: 0.04 inches (1.5 hPa) higher than three hours ago
ob: KOAK 130553Z 31011KT 10SM FEW006 BKN008 12/09 A3006 RMK AO2 SLP179 T01170094 10172 20117 51015
cycle: 6

Station Type Date Time Source
KOAK TAF 2021/05/13 06:33 UTC NOAA

TAF KOAK 130531Z 1306/1412 30010KT P6SM BKN006
FM130800 VRB06KT P6SM OVC006
TEMPO 1311/1315 4SM BR OVC004
FM131800 29008KT P6SM FEW200
FM140300 30014KT P6SM SCT011
FM140600 29010KT P6SM BKN008

Example: see airport list